Parker, Idaho
Current Conditions -  °F | °C
As of 5:53 PM on Tuesday 25 Nov 2014 (Local Time) from KRXE Reporting Station
Overcast Overcast  
Wind Chill:   Ceiling: 9000
Heat Index:   Visibility: 10mi
Dew Point:   Wind: 3mph
Humidity: 89%   Direction: 40°NE
Pressure: 30.07"   Gusts: NA
Location:  43.96°N, 111.76°W
Report Text: KRXE 260053Z AUTO 04003KT 10SM SCT060 SCT075 OVC090 03/01 A3007 RMK AO2 SLP198 T00280011
Loading
Personal Weather Stations






























Interactive Weather Map New forecast layout! Learn more

10-Day Weather Forecast

Advertisements
Track Severe Weather on mobile